createdAt,value
2018-12-12T00:00:00.146Z,771.95
2018-12-12T00:00:04.497Z,772
2018-12-12T00:00:08.798Z,772
2018-12-12T00:00:13.098Z,771.98
2018-12-12T00:00:17.396Z,771.97
2018-12-12T00:00:21.692Z,771.96
2018-12-12T00:00:25.983Z,771.94
2018-12-12T00:00:30.332Z,771.98
2018-12-12T00:00:34.635Z,771.99
2018-12-12T00:00:38.926Z,771.93
2018-12-12T00:00:43.228Z,771.97
2018-12-12T00:00:47.525Z,771.97
2018-12-12T00:00:51.817Z,771.96
2018-12-12T00:00:56.013Z,771.91
2018-12-12T00:01:00.205Z,771.99
2018-12-12T00:01:04.497Z,771.95
2018-12-12T00:01:08.788Z,771.97
2018-12-12T00:01:13.075Z,771.97
2018-12-12T00:01:17.267Z,771.96
2018-12-12T00:01:21.554Z,772
2018-12-12T00:01:25.864Z,771.98
2018-12-12T00:01:30.151Z,771.96
2018-12-12T00:01:34.449Z,771.97
2018-12-12T00:01:38.741Z,771.95
2018-12-12T00:01:43.011Z,771.98
2018-12-12T00:01:47.310Z,771.94
2018-12-12T00:01:51.654Z,771.96
2018-12-12T00:01:55.943Z,771.96
2018-12-12T00:02:00.235Z,771.98
2018-12-12T00:02:04.526Z,771.96
2018-12-12T00:02:08.819Z,772
2018-12-12T00:02:13.120Z,772.01
2018-12-12T00:02:17.410Z,771.99
2018-12-12T00:02:21.705Z,771.96
2018-12-12T00:02:25.902Z,771.99
2018-12-12T00:02:30.196Z,772.03
2018-12-12T00:02:34.489Z,772.01
2018-12-12T00:02:38.777Z,771.95
2018-12-12T00:02:43.065Z,771.97
2018-12-12T00:02:47.352Z,772
2018-12-12T00:02:51.646Z,771.98
2018-12-12T00:02:55.934Z,771.98
2018-12-12T00:03:00.225Z,772
2018-12-12T00:03:04.521Z,771.99
2018-12-12T00:03:08.612Z,772.02
2018-12-12T00:03:12.806Z,772
2018-12-12T00:03:17.094Z,771.98
2018-12-12T00:03:21.287Z,771.96
2018-12-12T00:03:25.584Z,771.96
2018-12-12T00:03:29.882Z,771.97
2018-12-12T00:03:34.072Z,772
2018-12-12T00:03:38.371Z,771.93
2018-12-12T00:03:42.738Z,771.93
2018-12-12T00:03:47.036Z,771.94
2018-12-12T00:03:51.329Z,771.94
2018-12-12T00:03:55.683Z,771.93
2018-12-12T00:03:59.984Z,771.94
2018-12-12T00:04:04.347Z,771.93
2018-12-12T00:04:08.634Z,771.91
2018-12-12T00:04:12.925Z,771.92
2018-12-12T00:04:17.222Z,771.96
2018-12-12T00:04:21.448Z,771.96
2018-12-12T00:04:25.660Z,771.97
2018-12-12T00:04:29.958Z,771.94
2018-12-12T00:04:34.248Z,771.96
2018-12-12T00:04:38.541Z,771.99
2018-12-12T00:04:42.833Z,771.92
2018-12-12T00:04:47.122Z,771.96
2018-12-12T00:04:51.433Z,771.98
2018-12-12T00:04:55.727Z,771.95
2018-12-12T00:05:00.024Z,771.97
2018-12-12T00:05:04.323Z,771.96
2018-12-12T00:05:08.620Z,771.9
2018-12-12T00:05:12.910Z,771.88
2018-12-12T00:05:17.198Z,771.92
2018-12-12T00:05:21.485Z,771.89
2018-12-12T00:05:25.783Z,771.94
2018-12-12T00:05:29.987Z,771.97
2018-12-12T00:05:34.284Z,771.95
2018-12-12T00:05:38.591Z,771.9
2018-12-12T00:05:42.921Z,771.91
2018-12-12T00:05:47.211Z,771.9
2018-12-12T00:05:51.509Z,771.91
2018-12-12T00:05:55.794Z,771.92
2018-12-12T00:06:00.983Z,771.87
2018-12-12T00:06:05.278Z,771.9
2018-12-12T00:06:09.476Z,771.9
2018-12-12T00:06:13.771Z,771.94
2018-12-12T00:06:18.078Z,771.91
2018-12-12T00:06:22.373Z,771.92
2018-12-12T00:06:26.667Z,771.92
2018-12-12T00:06:30.976Z,771.92
2018-12-12T00:06:35.278Z,771.94
2018-12-12T00:06:39.569Z,771.91
2018-12-12T00:06:43.867Z,771.91
2018-12-12T00:06:48.220Z,771.92
2018-12-12T00:06:52.517Z,771.92
2018-12-12T00:06:56.825Z,771.91
2018-12-12T00:07:01.117Z,771.93
2018-12-12T00:07:05.462Z,771.89
2018-12-12T00:07:09.659Z,771.95
2018-12-12T00:07:13.957Z,771.95
2018-12-12T00:07:18.259Z,771.93
2018-12-12T00:07:22.555Z,771.94
2018-12-12T00:07:26.850Z,771.92
2018-12-12T00:07:31.138Z,771.93
2018-12-12T00:07:35.429Z,771.94
2018-12-12T00:07:39.720Z,771.96
2018-12-12T00:07:44.013Z,771.93
2018-12-12T00:07:48.303Z,771.89
2018-12-12T00:07:52.590Z,771.91
2018-12-12T00:07:56.879Z,771.91
2018-12-12T00:08:01.165Z,771.9
2018-12-12T00:08:05.610Z,771.92
2018-12-12T00:08:09.898Z,771.93
2018-12-12T00:08:14.185Z,771.92
2018-12-12T00:08:18.479Z,771.87
2018-12-12T00:08:22.770Z,771.91
2018-12-12T00:08:27.056Z,771.97
2018-12-12T00:08:31.264Z,771.97
2018-12-12T00:08:35.455Z,771.99
2018-12-12T00:08:39.748Z,771.95
2018-12-12T00:08:44.048Z,772
2018-12-12T00:08:48.338Z,772.01
2018-12-12T00:08:52.627Z,772
2018-12-12T00:08:56.916Z,772.02
2018-12-12T00:09:01.203Z,772.05
2018-12-12T00:09:05.512Z,772.03
2018-12-12T00:09:09.802Z,772.04
2018-12-12T00:09:14.090Z,772.04
2018-12-12T00:09:18.390Z,772.04
2018-12-12T00:09:22.682Z,772.04
2018-12-12T00:09:26.976Z,772.04
2018-12-12T00:09:31.265Z,772.05
2018-12-12T00:09:35.564Z,772.08
2018-12-12T00:09:39.852Z,772.08
2018-12-12T00:09:44.136Z,772.07
2018-12-12T00:09:48.433Z,772.13
2018-12-12T00:09:52.725Z,772.08
2018-12-12T00:09:57.010Z,772.08
2018-12-12T00:10:01.466Z,772.1
2018-12-12T00:10:05.802Z,772.14
2018-12-12T00:10:09.993Z,772.1
2018-12-12T00:10:14.184Z,772.07
2018-12-12T00:10:18.483Z,772.11
2018-12-12T00:10:22.773Z,772.1
2018-12-12T00:10:27.069Z,772.11
2018-12-12T00:10:31.357Z,772.14
2018-12-12T00:10:35.654Z,772.14
2018-12-12T00:10:39.946Z,772.13
2018-12-12T00:10:44.231Z,772.14
2018-12-12T00:10:48.575Z,772.12
2018-12-12T00:10:52.876Z,772.15
2018-12-12T00:10:57.164Z,772.08
2018-12-12T00:11:01.451Z,772.1
2018-12-12T00:11:05.740Z,772.12
2018-12-12T00:11:09.934Z,772.11
2018-12-12T00:11:14.229Z,772.1
2018-12-12T00:11:18.521Z,772.1
2018-12-12T00:11:22.811Z,772.11
2018-12-12T00:11:27.076Z,772.19
2018-12-12T00:11:31.375Z,772.21
2018-12-12T00:11:35.672Z,772.18
2018-12-12T00:11:39.962Z,772.17
2018-12-12T00:11:44.247Z,772.22
2018-12-12T00:11:48.535Z,772.22
2018-12-12T00:11:52.832Z,772.22
2018-12-12T00:11:57.142Z,772.25
2018-12-12T00:12:01.433Z,772.22
2018-12-12T00:12:05.734Z,772.23
2018-12-12T00:12:10.028Z,772.21
2018-12-12T00:12:14.319Z,772.28
2018-12-12T00:12:18.612Z,772.21
2018-12-12T00:12:22.902Z,772.24
2018-12-12T00:12:27.198Z,772.29
2018-12-12T00:12:31.504Z,772.28
2018-12-12T00:12:35.867Z,772.27
2018-12-12T00:12:40.161Z,772.29
2018-12-12T00:12:44.506Z,772.31
2018-12-12T00:12:48.806Z,772.3
2018-12-12T00:12:53.099Z,772.33
2018-12-12T00:12:57.394Z,772.3
2018-12-12T00:13:01.713Z,772.33
2018-12-12T00:13:06.007Z,772.33
2018-12-12T00:13:10.303Z,772.33
2018-12-12T00:13:14.593Z,772.31
2018-12-12T00:13:18.883Z,772.35
2018-12-12T00:13:23.171Z,772.37
2018-12-12T00:13:27.459Z,772.36
2018-12-12T00:13:31.656Z,772.38
2018-12-12T00:13:35.952Z,772.37
2018-12-12T00:13:40.240Z,772.36
2018-12-12T00:13:44.535Z,772.37
2018-12-12T00:13:48.821Z,772.39
2018-12-12T00:13:53.110Z,772.38
2018-12-12T00:13:57.405Z,772.4
2018-12-12T00:14:01.601Z,772.43
2018-12-12T00:14:05.895Z,772.43
2018-12-12T00:14:10.181Z,772.45
2018-12-12T00:14:14.471Z,772.44
2018-12-12T00:14:18.661Z,772.42
2018-12-12T00:14:22.983Z,772.48
2018-12-12T00:14:27.271Z,772.49
2018-12-12T00:14:31.622Z,772.47
2018-12-12T00:14:35.916Z,772.51
2018-12-12T00:14:40.211Z,772.51
2018-12-12T00:14:44.503Z,772.52
2018-12-12T00:14:48.804Z,772.54
2018-12-12T00:14:53.089Z,772.54
2018-12-12T00:14:57.382Z,772.55
2018-12-12T00:15:01.685Z,772.49
2018-12-12T00:15:05.878Z,772.53
2018-12-12T00:15:10.167Z,772.58
2018-12-12T00:15:14.458Z,772.58
2018-12-12T00:15:18.757Z,772.61
2018-12-12T00:15:22.954Z,772.63
2018-12-12T00:15:27.244Z,772.65
2018-12-12T00:15:31.538Z,772.66
2018-12-12T00:15:35.743Z,772.63
2018-12-12T00:15:41.473Z,772.65
2018-12-12T00:15:45.771Z,772.67
2018-12-12T00:15:50.062Z,772.67
2018-12-12T00:15:54.355Z,772.71
2018-12-12T00:15:58.656Z,772.7
2018-12-12T00:16:02.953Z,772.72
2018-12-12T00:16:07.250Z,772.74
2018-12-12T00:16:11.757Z,772.76
2018-12-12T00:16:16.043Z,772.76
2018-12-12T00:16:20.330Z,772.79
2018-12-12T00:16:24.522Z,772.78
2018-12-12T00:16:28.812Z,772.79
2018-12-12T00:16:33.103Z,772.82
2018-12-12T00:16:37.401Z,772.82
2018-12-12T00:16:41.694Z,772.79
2018-12-12T00:16:45.983Z,772.86
2018-12-12T00:16:50.279Z,772.87
2018-12-12T00:16:54.576Z,772.84
2018-12-12T00:16:58.875Z,772.85
2018-12-12T00:17:03.165Z,772.85
2018-12-12T00:17:07.467Z,772.88
2018-12-12T00:17:11.666Z,772.88
2018-12-12T00:17:15.958Z,772.91
2018-12-12T00:17:20.246Z,772.9
2018-12-12T00:17:24.542Z,772.92
2018-12-12T00:17:28.830Z,772.95
2018-12-12T00:17:33.019Z,772.93
2018-12-12T00:17:37.307Z,772.95
2018-12-12T00:17:41.591Z,772.98
2018-12-12T00:17:45.808Z,772.97
2018-12-12T00:17:50.101Z,772.97
2018-12-12T00:17:54.400Z,773.02
2018-12-12T00:17:58.690Z,773.02
2018-12-12T00:18:02.979Z,773.01
2018-12-12T00:18:07.267Z,773.05
2018-12-12T00:18:11.461Z,773.05
2018-12-12T00:18:15.755Z,773.04
2018-12-12T00:18:20.047Z,773.07
2018-12-12T00:18:24.145Z,773.1
2018-12-12T00:18:28.625Z,773.08
2018-12-12T00:18:32.921Z,773.08
2018-12-12T00:18:37.213Z,773.11
2018-12-12T00:18:41.506Z,773.06
2018-12-12T00:18:45.801Z,773.12
2018-12-12T00:18:50.102Z,773.11
2018-12-12T00:18:54.301Z,773.15
2018-12-12T00:18:58.587Z,773.16
2018-12-12T00:19:02.876Z,773.16
2018-12-12T00:19:07.162Z,773.18
2018-12-12T00:19:11.456Z,773.18
2018-12-12T00:19:15.743Z,773.19
2018-12-12T00:19:20.040Z,773.22
2018-12-12T00:19:24.337Z,773.22
2018-12-12T00:19:28.532Z,773.22
2018-12-12T00:19:32.823Z,773.2
2018-12-12T00:19:37.115Z,773.2
2018-12-12T00:19:41.406Z,773.24
2018-12-12T00:19:45.696Z,773.19
2018-12-12T00:19:49.997Z,773.21
2018-12-12T00:19:54.287Z,773.25
2018-12-12T00:19:58.488Z,773.26
2018-12-12T00:20:02.784Z,773.29
2018-12-12T00:20:07.075Z,773.3
2018-12-12T00:20:11.369Z,773.3
2018-12-12T00:20:15.565Z,773.32
2018-12-12T00:20:19.865Z,773.32
2018-12-12T00:20:24.161Z,773.32
2018-12-12T00:20:28.461Z,773.33
2018-12-12T00:20:32.658Z,773.33
2018-12-12T00:20:36.854Z,773.36
2018-12-12T00:20:41.153Z,773.37
2018-12-12T00:20:45.519Z,773.39
2018-12-12T00:20:49.821Z,773.4
2018-12-12T00:20:54.128Z,773.41
2018-12-12T00:20:58.423Z,773.39
2018-12-12T00:21:02.723Z,773.42
2018-12-12T00:21:07.020Z,773.44
2018-12-12T00:21:11.317Z,773.46
2018-12-12T00:21:15.604Z,773.46
2018-12-12T00:21:19.898Z,773.45
2018-12-12T00:21:24.194Z,773.47
2018-12-12T00:21:28.485Z,773.46
2018-12-12T00:21:32.776Z,773.47
2018-12-12T00:21:37.065Z,773.5
2018-12-12T00:21:41.335Z,773.48
2018-12-12T00:21:45.621Z,773.53
2018-12-12T00:21:49.980Z,773.5
2018-12-12T00:21:54.278Z,773.53
2018-12-12T00:21:58.471Z,773.52
2018-12-12T00:22:02.761Z,773.54
2018-12-12T00:22:06.954Z,773.57
2018-12-12T00:22:11.246Z,773.55
2018-12-12T00:22:15.535Z,773.59
2018-12-12T00:22:19.827Z,773.57
2018-12-12T00:22:24.119Z,773.58
2018-12-12T00:22:28.409Z,773.6
2018-12-12T00:22:32.602Z,773.58
2018-12-12T00:22:36.891Z,773.6
2018-12-12T00:22:41.184Z,773.62
2018-12-12T00:22:45.481Z,773.63
2018-12-12T00:22:49.778Z,773.67
2018-12-12T00:22:53.971Z,773.66
2018-12-12T00:22:58.306Z,773.66
2018-12-12T00:23:02.410Z,773.67
2018-12-12T00:23:06.711Z,773.71
2018-12-12T00:23:10.999Z,773.71
2018-12-12T00:23:15.293Z,773.69
2018-12-12T00:23:19.578Z,773.69
2018-12-12T00:23:23.871Z,773.72
2018-12-12T00:23:28.156Z,773.73
2018-12-12T00:23:32.457Z,773.73
2018-12-12T00:23:36.752Z,773.73
2018-12-12T00:23:41.040Z,773.78
2018-12-12T00:23:45.326Z,773.72
2018-12-12T00:23:49.621Z,773.74
2018-12-12T00:23:53.920Z,773.77
2018-12-12T00:23:58.219Z,773.79
2018-12-12T00:24:02.516Z,773.8
2018-12-12T00:24:06.807Z,773.79
2018-12-12T00:24:11.006Z,773.79
2018-12-12T00:24:15.298Z,773.83
2018-12-12T00:24:19.591Z,773.84
2018-12-12T00:24:23.885Z,773.84
2018-12-12T00:24:28.179Z,773.86
2018-12-12T00:24:32.470Z,773.87
2018-12-12T00:24:36.760Z,773.88
2018-12-12T00:24:41.101Z,773.9
2018-12-12T00:24:45.396Z,773.89
2018-12-12T00:24:49.683Z,773.9
2018-12-12T00:24:53.982Z,773.87
2018-12-12T00:24:58.209Z,773.94
2018-12-12T00:25:02.509Z,773.91
2018-12-12T00:25:06.800Z,773.89
2018-12-12T00:25:11.100Z,773.89
2018-12-12T00:25:15.301Z,773.91
2018-12-12T00:25:19.592Z,773.95
2018-12-12T00:25:23.887Z,773.96
2018-12-12T00:25:28.085Z,773.97
2018-12-12T00:25:32.380Z,773.95
2018-12-12T00:25:36.677Z,773.95
2018-12-12T00:25:40.967Z,773.95
2018-12-12T00:25:45.489Z,773.98
2018-12-12T00:25:49.689Z,773.9
2018-12-12T00:25:53.881Z,773.99
2018-12-12T00:25:58.175Z,773.97
2018-12-12T00:26:02.388Z,773.95
2018-12-12T00:26:06.684Z,774
2018-12-12T00:26:10.978Z,773.98
2018-12-12T00:26:15.269Z,773.99
2018-12-12T00:26:19.554Z,774.01
2018-12-12T00:26:23.851Z,774.02
2018-12-12T00:26:28.148Z,774.04
2018-12-12T00:26:32.346Z,774.01
2018-12-12T00:26:36.639Z,774.03
2018-12-12T00:26:40.827Z,774.03
2018-12-12T00:26:45.115Z,774
2018-12-12T00:26:49.410Z,774.04
2018-12-12T00:26:53.619Z,774.03
2018-12-12T00:26:57.910Z,774.04
2018-12-12T00:27:02.197Z,774.03
2018-12-12T00:27:06.499Z,774.06
2018-12-12T00:27:10.594Z,774.05
2018-12-12T00:27:14.884Z,774.07
2018-12-12T00:27:19.174Z,774.07
2018-12-12T00:27:23.369Z,774.07
2018-12-12T00:27:27.662Z,774.08
2018-12-12T00:27:31.953Z,774.15
2018-12-12T00:27:36.245Z,774.13
2018-12-12T00:27:40.541Z,774.12
2018-12-12T00:27:44.836Z,774.11
2018-12-12T00:27:49.128Z,774.12
2018-12-12T00:27:53.423Z,774.17
2018-12-12T00:27:57.709Z,774.18
2018-12-12T00:28:02.011Z,774.21
2018-12-12T00:28:06.409Z,774.22
2018-12-12T00:28:10.706Z,774.21
2018-12-12T00:28:14.992Z,774.25
2018-12-12T00:28:19.286Z,774.26
2018-12-12T00:28:23.579Z,774.26
2018-12-12T00:28:27.870Z,774.28
2018-12-12T00:28:32.224Z,774.29
2018-12-12T00:28:36.413Z,774.28
2018-12-12T00:28:40.707Z,774.24
2018-12-12T00:28:44.995Z,774.31
2018-12-12T00:28:49.280Z,774.3
2018-12-12T00:28:53.564Z,774.3
2018-12-12T00:28:57.847Z,774.32
2018-12-12T00:29:02.133Z,774.34
2018-12-12T00:29:06.461Z,774.34
2018-12-12T00:29:10.673Z,774.37
2018-12-12T00:29:14.870Z,774.36
2018-12-12T00:29:19.190Z,774.4
2018-12-12T00:29:23.479Z,774.4
2018-12-12T00:29:27.771Z,774.38
2018-12-12T00:29:32.069Z,774.34
2018-12-12T00:29:36.270Z,774.4
2018-12-12T00:29:40.554Z,774.36
2018-12-12T00:29:44.853Z,774.38
2018-12-12T00:29:49.141Z,774.41
2018-12-12T00:29:53.430Z,774.41
2018-12-12T00:29:57.719Z,774.4
2018-12-12T00:30:02.013Z,774.42
2018-12-12T00:30:06.353Z,774.43
2018-12-12T00:30:10.642Z,774.43
2018-12-12T00:30:14.933Z,774.44
2018-12-12T00:30:19.219Z,774.45
2018-12-12T00:30:23.515Z,774.45
2018-12-12T00:30:27.804Z,774.45
2018-12-12T00:30:32.098Z,774.43
2018-12-12T00:30:36.385Z,774.45
2018-12-12T00:30:40.701Z,774.47
2018-12-12T00:30:44.987Z,774.47
2018-12-12T00:30:49.284Z,774.47
2018-12-12T00:30:53.584Z,774.48
2018-12-12T00:30:57.881Z,774.51
2018-12-12T00:31:02.185Z,774.48
2018-12-12T00:31:06.480Z,774.52
2018-12-12T00:31:10.777Z,774.5
2018-12-12T00:31:15.078Z,774.5
2018-12-12T00:31:19.369Z,774.49
2018-12-12T00:31:23.561Z,774.52
2018-12-12T00:31:27.865Z,774.52
2018-12-12T00:31:32.161Z,774.52
2018-12-12T00:31:36.458Z,774.54
2018-12-12T00:31:40.764Z,774.55
2018-12-12T00:31:45.047Z,774.56
2018-12-12T00:31:49.339Z,774.53
2018-12-12T00:31:53.628Z,774.56
2018-12-12T00:31:57.918Z,774.56
2018-12-12T00:32:02.277Z,774.59
2018-12-12T00:32:06.471Z,774.58
2018-12-12T00:32:10.761Z,774.62
2018-12-12T00:32:15.050Z,774.59
2018-12-12T00:32:19.343Z,774.6
2018-12-12T00:32:23.642Z,774.6
2018-12-12T00:32:27.939Z,774.62
2018-12-12T00:32:32.131Z,774.62
2018-12-12T00:32:36.425Z,774.62
2018-12-12T00:32:40.718Z,774.64
2018-12-12T00:32:44.913Z,774.63
2018-12-12T00:32:49.206Z,774.65
2018-12-12T00:32:53.393Z,774.63
2018-12-12T00:32:57.583Z,774.67
2018-12-12T00:33:01.876Z,774.67
2018-12-12T00:33:06.171Z,774.63
2018-12-12T00:33:10.479Z,774.65
2018-12-12T00:33:14.771Z,774.71
2018-12-12T00:33:19.064Z,774.69
2018-12-12T00:33:23.368Z,774.72
2018-12-12T00:33:27.660Z,774.65
2018-12-12T00:33:31.958Z,774.71
2018-12-12T00:33:36.070Z,774.69
2018-12-12T00:33:40.367Z,774.71
2018-12-12T00:33:44.658Z,774.72
2018-12-12T00:33:48.965Z,774.71
2018-12-12T00:33:53.253Z,774.73
2018-12-12T00:33:57.541Z,774.72
2018-12-12T00:34:02.006Z,774.7
2018-12-12T00:34:06.296Z,774.74
2018-12-12T00:34:10.585Z,774.74
2018-12-12T00:34:14.870Z,774.75
2018-12-12T00:34:19.162Z,774.75
2018-12-12T00:34:23.457Z,774.74
2018-12-12T00:34:27.744Z,774.74
2018-12-12T00:34:32.048Z,774.75
2018-12-12T00:34:36.339Z,774.79
2018-12-12T00:34:40.637Z,774.76
2018-12-12T00:34:44.925Z,774.77
2018-12-12T00:34:49.217Z,774.8
2018-12-12T00:34:53.513Z,774.8
2018-12-12T00:34:57.700Z,774.79
2018-12-12T00:35:02.067Z,774.78
2018-12-12T00:35:06.356Z,774.81
2018-12-12T00:35:10.646Z,774.83
2018-12-12T00:35:14.940Z,774.85
2018-12-12T00:35:19.232Z,774.78
2018-12-12T00:35:23.513Z,774.87
2018-12-12T00:35:27.806Z,774.84
2018-12-12T00:35:32.091Z,774.86
2018-12-12T00:35:36.381Z,774.83
2018-12-12T00:35:41.903Z,774.82
2018-12-12T00:35:46.214Z,774.86
2018-12-12T00:35:50.521Z,774.85
2018-12-12T00:35:54.817Z,774.86
2018-12-12T00:35:59.154Z,774.85
2018-12-12T00:36:03.545Z,774.83
2018-12-12T00:36:07.837Z,774.85
2018-12-12T00:36:12.135Z,774.87
2018-12-12T00:36:16.334Z,774.85
2018-12-12T00:36:20.533Z,774.88
2018-12-12T00:36:24.736Z,774.85
2018-12-12T00:36:29.025Z,774.89
2018-12-12T00:36:33.313Z,774.9
2018-12-12T00:36:37.609Z,774.87
2018-12-12T00:36:41.899Z,774.87
2018-12-12T00:36:46.194Z,774.88
2018-12-12T00:36:50.489Z,774.84
2018-12-12T00:36:54.780Z,774.84
2018-12-12T00:36:59.069Z,774.9
2018-12-12T00:37:03.477Z,774.89
2018-12-12T00:37:07.767Z,774.91
2018-12-12T00:37:12.055Z,774.92
2018-12-12T00:37:16.349Z,774.9
2018-12-12T00:37:20.640Z,774.94
2018-12-12T00:37:24.929Z,774.94
2018-12-12T00:37:29.227Z,774.93
2018-12-12T00:37:33.516Z,774.93
2018-12-12T00:37:37.827Z,774.95
2018-12-12T00:37:42.121Z,774.98
2018-12-12T00:37:46.408Z,774.94
2018-12-12T00:37:50.698Z,774.96
2018-12-12T00:37:54.985Z,774.97
2018-12-12T00:37:59.270Z,774.97
2018-12-12T00:38:03.562Z,774.97
2018-12-12T00:38:07.850Z,774.97
2018-12-12T00:38:12.042Z,774.98
2018-12-12T00:38:16.334Z,774.98
2018-12-12T00:38:20.630Z,775.01
2018-12-12T00:38:24.923Z,774.98
2018-12-12T00:38:29.118Z,775
2018-12-12T00:38:33.311Z,775
2018-12-12T00:38:37.497Z,774.96
2018-12-12T00:38:41.787Z,774.98
2018-12-12T00:38:45.978Z,774.98
2018-12-12T00:38:50.263Z,775.02
2018-12-12T00:38:54.553Z,775.02
2018-12-12T00:38:58.849Z,775.04
2018-12-12T00:39:03.146Z,775.03
2018-12-12T00:39:07.437Z,775.06
2018-12-12T00:39:11.634Z,775.03
2018-12-12T00:39:15.828Z,775.03
2018-12-12T00:39:20.123Z,775.02
2018-12-12T00:39:24.413Z,775.04
2018-12-12T00:39:28.717Z,775.04
2018-12-12T00:39:32.913Z,775.06
2018-12-12T00:39:37.205Z,775.07
2018-12-12T00:39:41.495Z,775.07
2018-12-12T00:39:45.784Z,775.06
2018-12-12T00:39:50.083Z,775.06
2018-12-12T00:39:54.372Z,775.04
2018-12-12T00:39:58.564Z,775.1
2018-12-12T00:40:02.866Z,775.11
2018-12-12T00:40:07.156Z,775.08
2018-12-12T00:40:11.440Z,775.12
2018-12-12T00:40:15.747Z,775.12
2018-12-12T00:40:20.045Z,775.1
2018-12-12T00:40:24.337Z,775.08
2018-12-12T00:40:28.630Z,775.15
2018-12-12T00:40:32.921Z,775.1
2018-12-12T00:40:37.116Z,775.09
2018-12-12T00:40:41.410Z,775.14
2018-12-12T00:40:45.748Z,775.1
2018-12-12T00:40:50.041Z,775.13
2018-12-12T00:40:54.333Z,775.11
2018-12-12T00:40:58.623Z,775.11
2018-12-12T00:41:02.922Z,775.14
2018-12-12T00:41:07.210Z,775.14
2018-12-12T00:41:11.399Z,775.12
2018-12-12T00:41:15.587Z,775.15
2018-12-12T00:41:19.879Z,775.12
2018-12-12T00:41:24.166Z,775.15
2018-12-12T00:41:28.456Z,775.15
2018-12-12T00:41:32.742Z,775.15
2018-12-12T00:41:37.035Z,775.16
2018-12-12T00:41:41.337Z,775.14
2018-12-12T00:41:45.621Z,775.2
2018-12-12T00:41:49.910Z,775.15
2018-12-12T00:41:54.203Z,775.14
2018-12-12T00:41:58.491Z,775.14
2018-12-12T00:42:02.679Z,775.17
2018-12-12T00:42:06.979Z,775.17
2018-12-12T00:42:11.263Z,775.15
2018-12-12T00:42:15.557Z,775.15
2018-12-12T00:42:20.820Z,775.16
2018-12-12T00:42:25.014Z,775.15
2018-12-12T00:42:29.203Z,775.19
2018-12-12T00:42:33.489Z,775.16
2018-12-12T00:42:37.677Z,775.14
2018-12-12T00:42:42.031Z,775.16
2018-12-12T00:42:46.323Z,775.16
2018-12-12T00:42:50.518Z,775.18
2018-12-12T00:42:54.807Z,775.14
2018-12-12T00:42:59.097Z,775.16
2018-12-12T00:43:03.439Z,775.17
2018-12-12T00:43:07.636Z,775.18
2018-12-12T00:43:11.831Z,775.14
2018-12-12T00:43:16.127Z,775.19
2018-12-12T00:43:20.329Z,775.16
2018-12-12T00:43:24.525Z,775.17
2018-12-12T00:43:28.814Z,775.18
2018-12-12T00:43:33.107Z,775.19
2018-12-12T00:43:37.392Z,775.14
2018-12-12T00:43:41.683Z,775.14
2018-12-12T00:43:45.971Z,775.13
2018-12-12T00:43:50.259Z,775.15
2018-12-12T00:43:54.581Z,775.22
2018-12-12T00:43:58.868Z,775.22
2018-12-12T00:44:03.157Z,775.22
2018-12-12T00:44:07.453Z,775.25
2018-12-12T00:44:11.742Z,775.22
2018-12-12T00:44:16.034Z,775.26
2018-12-12T00:44:20.348Z,775.24
2018-12-12T00:44:24.647Z,775.24
2018-12-12T00:44:28.938Z,775.25
2018-12-12T00:44:33.131Z,775.23
2018-12-12T00:44:37.419Z,775.26
2018-12-12T00:44:41.613Z,775.26
2018-12-12T00:44:45.915Z,775.24
2018-12-12T00:44:50.224Z,775.3
2018-12-12T00:44:54.520Z,775.3
2018-12-12T00:44:58.817Z,775.26
2018-12-12T00:45:03.113Z,775.26
2018-12-12T00:45:07.406Z,775.28
2018-12-12T00:45:11.704Z,775.26
2018-12-12T00:45:15.993Z,775.31
2018-12-12T00:45:20.205Z,775.25
2018-12-12T00:45:24.501Z,775.28
2018-12-12T00:45:28.790Z,775.3
2018-12-12T00:45:33.081Z,775.28
2018-12-12T00:45:37.372Z,775.29
2018-12-12T00:45:41.666Z,775.27
2018-12-12T00:45:45.954Z,775.24
2018-12-12T00:45:50.246Z,775.28
2018-12-12T00:45:54.546Z,775.3
2018-12-12T00:45:58.845Z,775.31
2018-12-12T00:46:03.137Z,775.31
2018-12-12T00:46:07.435Z,775.33
2018-12-12T00:46:11.782Z,775.33
2018-12-12T00:46:16.077Z,775.32
2018-12-12T00:46:20.368Z,775.33
2018-12-12T00:46:24.572Z,775.34
2018-12-12T00:46:28.869Z,775.35
2018-12-12T00:46:33.155Z,775.32
2018-12-12T00:46:37.451Z,775.31
2018-12-12T00:46:41.738Z,775.33
2018-12-12T00:46:46.021Z,775.32
2018-12-12T00:46:50.215Z,775.24
2018-12-12T00:46:54.319Z,775.31
2018-12-12T00:46:58.619Z,775.32
2018-12-12T00:47:02.915Z,775.3
2018-12-12T00:47:07.210Z,775.3
2018-12-12T00:47:11.510Z,775.28
2018-12-12T00:47:15.799Z,775.29
2018-12-12T00:47:20.087Z,775.3
2018-12-12T00:47:24.374Z,775.32
2018-12-12T00:47:28.662Z,775.35
2018-12-12T00:47:32.958Z,775.33
2018-12-12T00:47:37.250Z,775.3
2018-12-12T00:47:41.542Z,775.3
2018-12-12T00:47:45.838Z,775.31
2018-12-12T00:47:50.192Z,775.31
2018-12-12T00:47:54.481Z,775.3
2018-12-12T00:47:58.772Z,775.27
2018-12-12T00:48:03.067Z,775.27
2018-12-12T00:48:07.357Z,775.28
2018-12-12T00:48:11.654Z,775.27
2018-12-12T00:48:15.940Z,775.24
2018-12-12T00:48:20.228Z,775.27
2018-12-12T00:48:24.524Z,775.27
2018-12-12T00:48:28.822Z,775.27
2018-12-12T00:48:33.114Z,775.29
2018-12-12T00:48:37.412Z,775.28
2018-12-12T00:48:41.604Z,775.25
2018-12-12T00:48:45.897Z,775.3
2018-12-12T00:48:50.089Z,775.26
2018-12-12T00:48:54.278Z,775.27
2018-12-12T00:48:58.583Z,775.27
2018-12-12T00:49:02.777Z,775.28
2018-12-12T00:49:07.062Z,775.26
2018-12-12T00:49:11.252Z,775.3
2018-12-12T00:49:15.541Z,775.26
2018-12-12T00:49:19.826Z,775.27
2018-12-12T00:49:24.112Z,775.27
2018-12-12T00:49:28.401Z,775.3
2018-12-12T00:49:32.698Z,775.26
2018-12-12T00:49:36.890Z,775.26
2018-12-12T00:49:41.179Z,775.26
2018-12-12T00:49:45.469Z,775.25
2018-12-12T00:49:49.752Z,775.23
2018-12-12T00:49:53.946Z,775.22
2018-12-12T00:49:58.240Z,775.23
2018-12-12T00:50:02.540Z,775.2
2018-12-12T00:50:06.832Z,775.2
2018-12-12T00:50:11.122Z,775.23
2018-12-12T00:50:15.427Z,775.22
2018-12-12T00:50:19.718Z,775.21
2018-12-12T00:50:24.008Z,775.19
2018-12-12T00:50:28.306Z,775.18
2018-12-12T00:50:32.611Z,775.23
2018-12-12T00:50:36.909Z,775.19
2018-12-12T00:50:41.193Z,775.17
2018-12-12T00:50:45.486Z,775.17
2018-12-12T00:50:49.778Z,775.17
2018-12-12T00:50:53.966Z,775.17
2018-12-12T00:50:58.252Z,775.15
2018-12-12T00:51:02.555Z,775.14
2018-12-12T00:51:06.849Z,775.16
2018-12-12T00:51:11.138Z,775.19
2018-12-12T00:51:15.429Z,775.13
2018-12-12T00:51:19.720Z,775.13
2018-12-12T00:51:24.014Z,775.13
2018-12-12T00:51:28.206Z,775.13
2018-12-12T00:51:32.495Z,775.16
2018-12-12T00:51:36.790Z,775.11
2018-12-12T00:51:41.084Z,775.12
2018-12-12T00:51:45.374Z,775.11
2018-12-12T00:51:49.684Z,775.12
2018-12-12T00:51:53.970Z,775.09
2018-12-12T00:51:58.272Z,775.08
2018-12-12T00:52:02.664Z,775.09
2018-12-12T00:52:06.969Z,775.1
2018-12-12T00:52:11.173Z,775.12
2018-12-12T00:52:15.463Z,775.09
2018-12-12T00:52:19.653Z,775.06
2018-12-12T00:52:23.943Z,775.09
2018-12-12T00:52:28.233Z,775.06
2018-12-12T00:52:32.531Z,775.07
2018-12-12T00:52:36.819Z,775.07
2018-12-12T00:52:41.108Z,775.07
2018-12-12T00:52:45.399Z,775.06
2018-12-12T00:52:49.683Z,775.08
2018-12-12T00:52:53.980Z,775.05
2018-12-12T00:52:58.274Z,775.02
2018-12-12T00:53:02.564Z,775.04
2018-12-12T00:53:06.850Z,775.04
2018-12-12T00:53:11.146Z,775.04
2018-12-12T00:53:15.435Z,775.03
2018-12-12T00:53:19.734Z,775
2018-12-12T00:53:24.025Z,774.97
2018-12-12T00:53:28.323Z,775.01
2018-12-12T00:53:32.618Z,774.99
2018-12-12T00:53:36.912Z,774.98
2018-12-12T00:53:41.106Z,774.99
2018-12-12T00:53:45.301Z,774.96